createdAt,value
2023-05-12T00:00:58.466Z,10.08
2023-05-12T00:01:58.649Z,10.21
2023-05-12T00:02:58.572Z,9.15
2023-05-12T00:03:58.890Z,10.04
2023-05-12T00:04:58.746Z,10.36
2023-05-12T00:05:58.606Z,11.05
2023-05-12T00:06:58.739Z,10.11
2023-05-12T00:07:58.654Z,10.39
2023-05-12T00:08:58.636Z,12.31
2023-05-12T00:09:58.680Z,13.74
2023-05-12T00:10:58.681Z,13.40
2023-05-12T00:11:58.651Z,13.91
2023-05-12T00:12:58.658Z,14.13
2023-05-12T00:13:58.691Z,14.75
2023-05-12T00:14:58.791Z,14.75
2023-05-12T00:15:58.865Z,13.84
2023-05-12T00:16:58.726Z,14.07
2023-05-12T00:17:58.841Z,14.38
2023-05-12T00:18:58.827Z,14.35
2023-05-12T00:19:58.803Z,14.55
2023-05-12T00:20:58.806Z,13.38
2023-05-12T00:21:58.812Z,12.11
2023-05-12T00:22:58.828Z,12.07
2023-05-12T00:23:58.840Z,13.11
2023-05-12T00:24:58.943Z,11.69
2023-05-12T00:25:58.944Z,12.92
2023-05-12T00:26:58.946Z,12.27
2023-05-12T00:27:58.899Z,12.41
2023-05-12T00:28:58.963Z,11.46
2023-05-12T00:29:58.926Z,12.79
2023-05-12T00:30:58.924Z,12.15
2023-05-12T00:31:59.197Z,11.59
2023-05-12T00:32:59.212Z,11.96
2023-05-12T00:33:59.095Z,11.04
2023-05-12T00:34:59.059Z,11.80
2023-05-12T00:35:59.150Z,12.28
2023-05-12T00:36:59.106Z,11.15
2023-05-12T00:37:59.123Z,12.16
2023-05-12T00:38:59.130Z,11.87
2023-05-12T00:39:59.140Z,11.79
2023-05-12T00:40:59.143Z,11.36
2023-05-12T00:41:59.311Z,11.61
2023-05-12T00:42:59.214Z,11.40
2023-05-12T00:43:59.283Z,10.41
2023-05-12T00:44:59.231Z,10.25
2023-05-12T00:45:59.344Z,9.61
2023-05-12T00:46:59.294Z,9.54
2023-05-12T00:47:59.345Z,11.17
2023-05-12T00:48:59.355Z,9.93
2023-05-12T00:49:59.355Z,9.38
2023-05-12T00:50:59.432Z,10.27
2023-05-12T00:51:59.385Z,9.33
2023-05-12T00:52:59.495Z,9.80
2023-05-12T00:53:59.488Z,9.81
2023-05-12T00:54:59.587Z,9.81
2023-05-12T00:55:59.606Z,10.16
2023-05-12T00:56:59.673Z,10.05
2023-05-12T00:57:59.688Z,9.64
2023-05-12T00:58:59.686Z,9.31
2023-05-12T00:59:59.749Z,10.36
2023-05-12T01:01:00.162Z,9.90
2023-05-12T01:01:59.757Z,9.72
2023-05-12T01:02:59.930Z,11.09
2023-05-12T01:03:59.929Z,10.95
2023-05-12T01:04:59.937Z,10.89
2023-05-12T01:05:59.903Z,11.68
2023-05-12T01:06:59.943Z,10.47
2023-05-12T01:07:59.891Z,11.70
2023-05-12T01:08:59.989Z,12.54
2023-05-12T01:09:59.964Z,12.48
2023-05-12T01:10:59.968Z,12.13
2023-05-12T01:12:00.048Z,12.85
2023-05-12T01:13:00.003Z,11.89
2023-05-12T01:14:00.004Z,12.31
2023-05-12T01:15:00.025Z,11.66
2023-05-12T01:16:00.056Z,11.89
2023-05-12T01:17:00.154Z,11.85
2023-05-12T01:18:00.203Z,12.18
2023-05-12T01:19:00.242Z,11.27
2023-05-12T01:20:00.247Z,12.34
2023-05-12T01:21:00.188Z,12.02
2023-05-12T01:22:00.261Z,11.66
2023-05-12T01:23:00.360Z,10.49
2023-05-12T01:24:00.359Z,11.33
2023-05-12T01:25:00.378Z,11.14
2023-05-12T01:26:00.390Z,10.69
2023-05-12T01:27:00.467Z,11.26
2023-05-12T01:28:00.499Z,11.03
2023-05-12T01:29:00.554Z,12.35
2023-05-12T01:30:00.615Z,11.30
2023-05-12T01:31:00.708Z,11.39
2023-05-12T01:32:00.650Z,10.83
2023-05-12T01:33:00.713Z,11.43
2023-05-12T01:34:00.742Z,10.52
2023-05-12T01:35:00.800Z,10.60
2023-05-12T01:36:00.869Z,10.57
2023-05-12T01:37:00.802Z,10.51
2023-05-12T01:38:00.875Z,9.68
2023-05-12T01:39:00.875Z,10.70
2023-05-12T01:40:01.017Z,10.58
2023-05-12T01:42:24.288Z,5.30
2023-05-12T01:47:42.979Z,4.37
2023-05-12T01:50:02.852Z,5.70
2023-05-12T01:55:25.927Z,7.67
2023-05-12T01:56:25.331Z,12.35
2023-05-12T02:00:17.348Z,2.76
2023-05-12T02:07:59.891Z,12.41
2023-05-12T02:08:59.807Z,11.98
2023-05-12T02:11:19.630Z,8.53
2023-05-12T02:13:43.636Z,8.88
2023-05-12T02:16:35.346Z,9.87
2023-05-12T02:20:50.910Z,10.09
2023-05-12T02:21:50.623Z,10.42
2023-05-12T02:22:50.521Z,9.91
2023-05-12T02:23:50.837Z,10.67
2023-05-12T02:24:50.637Z,9.12
2023-05-12T02:25:50.676Z,9.30
2023-05-12T02:26:50.557Z,9.45
2023-05-12T02:27:50.492Z,8.99
2023-05-12T02:28:50.613Z,9.23
2023-05-12T02:36:53.550Z,1.13
2023-05-12T02:42:35.247Z,6.49
2023-05-12T02:43:34.944Z,9.85
2023-05-12T02:44:34.971Z,9.91
2023-05-12T02:45:34.982Z,9.66
2023-05-12T02:52:09.121Z,4.32
2023-05-12T02:59:18.774Z,11.06
2023-05-12T03:11:40.820Z,4.86
2023-05-12T03:12:40.382Z,10.96
2023-05-12T03:17:18.426Z,4.38
2023-05-12T03:18:18.323Z,10.58
2023-05-12T03:20:49.569Z,5.82
2023-05-12T03:23:41.420Z,2.76
2023-05-12T03:26:01.224Z,10.06
2023-05-12T03:27:01.207Z,9.20
2023-05-12T03:28:01.100Z,9.26
2023-05-12T03:29:01.063Z,8.17
2023-05-12T03:30:01.131Z,9.22
2023-05-12T03:31:01.129Z,8.31
2023-05-12T03:32:01.039Z,8.77
2023-05-12T03:33:01.066Z,8.46
2023-05-12T03:34:01.033Z,8.91
2023-05-12T03:35:01.175Z,9.66
2023-05-12T03:36:01.007Z,10.02
2023-05-12T03:37:00.981Z,9.99
2023-05-12T03:38:00.979Z,9.54
2023-05-12T03:39:01.017Z,9.82
2023-05-12T03:40:00.986Z,9.59
2023-05-12T03:41:01.297Z,9.38
2023-05-12T03:42:01.033Z,8.51
2023-05-12T03:43:00.968Z,9.92
2023-05-12T03:44:00.966Z,10.76
2023-05-12T03:45:01.041Z,9.79
2023-05-12T03:46:01.060Z,10.53
2023-05-12T03:47:01.013Z,9.36
2023-05-12T03:48:01.394Z,9.54
2023-05-12T03:49:00.922Z,9.40
2023-05-12T03:50:00.943Z,9.49
2023-05-12T03:51:00.930Z,10.46
2023-05-12T03:52:00.883Z,9.62
2023-05-12T03:53:00.877Z,9.78
2023-05-12T03:54:00.970Z,9.10
2023-05-12T03:58:08.255Z,4.86
2023-05-12T04:00:38.946Z,0.44
2023-05-12T04:03:04.320Z,4.38
2023-05-12T04:12:37.688Z,9.91
2023-05-12T04:14:57.091Z,8.97
2023-05-12T04:18:44.563Z,1.81
2023-05-12T04:19:44.476Z,10.99
2023-05-12T04:23:23.487Z,4.86
2023-05-12T04:25:43.638Z,10.64
2023-05-12T04:29:57.955Z,4.41
2023-05-12T04:30:57.876Z,9.62
2023-05-12T04:37:08.365Z,3.72
2023-05-12T04:39:18.511Z,8.89
2023-05-12T04:44:04.580Z,2.04
2023-05-12T04:48:20.886Z,5.22
2023-05-12T04:50:40.517Z,7.09
2023-05-12T04:54:20.591Z,6.93
2023-05-12T04:57:56.457Z,2.89
2023-05-12T04:58:57.398Z,7.58
2023-05-12T05:02:13.172Z,6.81
2023-05-12T05:03:13.218Z,8.79
2023-05-12T05:06:14.870Z,3.75
2023-05-12T05:07:15.071Z,9.77
2023-05-12T05:08:14.813Z,9.69
2023-05-12T05:13:03.111Z,0.00
2023-05-12T05:14:02.808Z,8.75
2023-05-12T05:15:03.498Z,8.68
2023-05-12T05:16:02.555Z,8.84
2023-05-12T05:17:02.516Z,8.35
2023-05-12T05:18:02.578Z,8.79
2023-05-12T05:19:06.439Z,9.09
2023-05-12T05:21:02.514Z,8.39
2023-05-12T05:22:02.473Z,9.02
2023-05-12T05:23:02.537Z,7.51
2023-05-12T05:24:02.486Z,7.90
2023-05-12T05:25:02.719Z,7.14
2023-05-12T05:26:02.504Z,8.37
2023-05-12T05:27:02.609Z,7.67
2023-05-12T05:28:03.197Z,8.43
2023-05-12T05:29:02.541Z,7.53
2023-05-12T05:30:02.620Z,8.07
2023-05-12T05:31:02.635Z,8.30
2023-05-12T05:32:02.667Z,8.37
2023-05-12T05:33:02.720Z,8.82
2023-05-12T05:34:02.800Z,8.39
2023-05-12T05:35:02.768Z,8.29
2023-05-12T05:36:02.778Z,8.20
2023-05-12T05:37:02.887Z,7.27
2023-05-12T05:38:02.792Z,8.42
2023-05-12T05:39:02.819Z,8.33
2023-05-12T05:40:02.856Z,8.94
2023-05-12T05:41:02.912Z,9.20
2023-05-12T05:42:02.997Z,8.78
2023-05-12T05:43:03.073Z,8.18
2023-05-12T05:44:03.086Z,8.74
2023-05-12T05:45:03.155Z,7.68
2023-05-12T05:46:03.218Z,8.28
2023-05-12T05:47:03.360Z,8.05
2023-05-12T05:48:03.346Z,8.18
2023-05-12T05:49:03.487Z,8.47
2023-05-12T05:50:03.436Z,8.64
2023-05-12T05:51:03.407Z,7.94
2023-05-12T05:52:03.495Z,7.48
2023-05-12T05:53:03.613Z,7.32
2023-05-12T05:54:03.555Z,6.70
2023-05-12T05:55:03.616Z,7.09
2023-05-12T05:56:03.728Z,7.81
2023-05-12T05:57:03.720Z,7.98
2023-05-12T05:58:03.744Z,8.36
2023-05-12T05:59:03.828Z,7.84
2023-05-12T06:00:03.801Z,8.61
2023-05-12T06:01:04.021Z,7.48
2023-05-12T06:02:03.963Z,7.54
2023-05-12T06:03:03.995Z,8.61
2023-05-12T06:04:04.141Z,8.73
2023-05-12T06:05:04.068Z,7.87
2023-05-12T06:06:04.099Z,7.30
2023-05-12T06:07:04.730Z,8.04
2023-05-12T06:08:04.198Z,8.30
2023-05-12T06:09:04.224Z,8.50
2023-05-12T06:10:04.285Z,7.94
2023-05-12T06:11:04.235Z,8.12
2023-05-12T06:12:04.277Z,7.45
2023-05-12T06:13:04.299Z,7.16
2023-05-12T06:14:04.762Z,8.49
2023-05-12T06:15:04.360Z,7.34
2023-05-12T06:16:04.367Z,8.21
2023-05-12T06:17:04.477Z,7.45
2023-05-12T06:18:04.456Z,7.65
2023-05-12T06:19:04.558Z,8.35
2023-05-12T06:20:04.413Z,7.76
2023-05-12T06:21:04.511Z,8.47
2023-05-12T06:22:04.446Z,8.19
2023-05-12T06:23:04.553Z,7.93
2023-05-12T06:24:04.519Z,7.40
2023-05-12T06:25:04.526Z,7.62
2023-05-12T06:26:04.570Z,8.22
2023-05-12T06:27:04.574Z,8.73
2023-05-12T06:28:04.549Z,8.99
2023-05-12T06:29:04.704Z,8.55
2023-05-12T06:30:04.756Z,7.66
2023-05-12T06:31:04.594Z,8.43
2023-05-12T06:32:04.684Z,7.92
2023-05-12T06:33:04.688Z,8.24
2023-05-12T06:34:04.541Z,7.49
2023-05-12T06:35:04.613Z,7.94
2023-05-12T06:36:04.792Z,7.93
2023-05-12T06:37:04.602Z,7.61
2023-05-12T06:38:04.521Z,8.00
2023-05-12T06:39:04.551Z,7.58
2023-05-12T06:40:04.530Z,7.69
2023-05-12T06:41:04.595Z,8.06
2023-05-12T06:42:04.547Z,6.77
2023-05-12T06:43:04.687Z,7.31
2023-05-12T06:44:04.694Z,7.88
2023-05-12T06:45:04.786Z,7.21
2023-05-12T06:46:04.794Z,7.41
2023-05-12T06:47:04.800Z,7.43
2023-05-12T06:48:04.941Z,7.11
2023-05-12T06:49:04.993Z,6.89
2023-05-12T06:50:04.958Z,6.36
2023-05-12T06:51:05.019Z,7.17
2023-05-12T06:52:05.084Z,6.40
2023-05-12T06:53:05.263Z,6.57
2023-05-12T06:57:06.539Z,7.30
2023-05-12T06:58:06.173Z,6.23
2023-05-12T06:59:06.965Z,6.67
2023-05-12T07:01:25.886Z,5.98
2023-05-12T07:02:25.781Z,6.90
2023-05-12T07:03:25.776Z,6.46
2023-05-12T07:10:02.671Z,3.03
2023-05-12T07:11:02.251Z,6.13
2023-05-12T07:12:02.252Z,6.29
2023-05-12T07:13:05.128Z,6.64
2023-05-12T07:16:28.903Z,4.38
2023-05-12T07:19:45.468Z,7.48
2023-05-12T07:22:33.258Z,3.16
2023-05-12T07:23:32.842Z,7.24
2023-05-12T07:24:32.869Z,7.10
2023-05-12T07:28:38.633Z,2.04
2023-05-12T07:29:37.985Z,6.27
2023-05-12T07:30:37.933Z,5.58
2023-05-12T07:31:38.732Z,5.90
2023-05-12T07:32:37.977Z,5.97
2023-05-12T07:36:04.728Z,0.00
2023-05-12T07:36:57.878Z,5.52
2023-05-12T07:37:58.122Z,4.88
2023-05-12T07:38:57.838Z,4.51
2023-05-12T07:39:57.844Z,3.86
2023-05-12T07:40:57.815Z,5.13
2023-05-12T07:41:57.844Z,5.01
2023-05-12T07:42:57.758Z,4.57
2023-05-12T07:43:57.872Z,3.97
2023-05-12T07:44:57.780Z,3.52
2023-05-12T07:45:57.802Z,3.73
2023-05-12T07:46:57.819Z,2.71
2023-05-12T07:49:42.860Z,0.13
2023-05-12T07:53:47.887Z,3.49
2023-05-12T07:54:40.880Z,3.06
2023-05-12T07:57:20.941Z,0.00
2023-05-12T07:58:20.382Z,2.52
2023-05-12T07:59:20.411Z,3.24
2023-05-12T08:02:00.849Z,2.62
2023-05-12T08:04:20.841Z,2.97
2023-05-12T08:05:19.550Z,3.32
2023-05-12T08:06:19.575Z,3.33
2023-05-12T08:07:19.450Z,2.84
2023-05-12T08:08:19.777Z,3.24
2023-05-12T08:09:20.617Z,2.91
2023-05-12T08:13:38.273Z,0.00
2023-05-12T08:14:37.816Z,3.18
2023-05-12T08:15:37.642Z,3.05
2023-05-12T08:16:37.792Z,2.98
2023-05-12T08:17:38.404Z,2.98
2023-05-12T08:18:37.735Z,3.13
2023-05-12T08:19:37.639Z,2.40
2023-05-12T08:20:37.642Z,2.34
2023-05-12T08:25:26.913Z,0.00
2023-05-12T08:26:26.726Z,2.19
2023-05-12T08:27:26.632Z,1.99
2023-05-12T08:28:26.648Z,1.83
2023-05-12T08:29:26.622Z,1.78
2023-05-12T08:30:26.997Z,1.95
2023-05-12T08:31:27.290Z,2.40
2023-05-12T08:32:28.303Z,1.84
2023-05-12T08:33:26.641Z,1.99
2023-05-12T08:34:27.184Z,2.01
2023-05-12T08:35:26.572Z,1.81
2023-05-12T08:36:26.574Z,1.58
2023-05-12T08:37:26.611Z,1.69
2023-05-12T08:38:26.499Z,1.53
2023-05-12T08:39:26.555Z,1.13
2023-05-12T08:40:26.616Z,1.29
2023-05-12T08:41:26.475Z,1.24
2023-05-12T08:42:26.537Z,0.84
2023-05-12T08:46:55.673Z,0.00
2023-05-12T08:47:54.568Z,1.54
2023-05-12T08:48:54.472Z,1.71
2023-05-12T09:00:25.909Z,4.26
2023-05-12T09:01:15.722Z,2.12
2023-05-12T09:02:15.703Z,1.62
2023-05-12T09:03:15.917Z,2.14
2023-05-12T09:08:37.804Z,2.04
2023-05-12T09:09:36.925Z,2.01
2023-05-12T09:10:37.102Z,1.69
2023-05-12T09:11:36.969Z,1.75
2023-05-12T09:19:24.155Z,1.19
2023-05-12T09:20:27.769Z,2.03
2023-05-12T09:23:44.711Z,0.00
2023-05-12T09:24:44.117Z,1.72
2023-05-12T09:25:45.161Z,2.07
2023-05-12T09:26:44.446Z,1.19
2023-05-12T09:27:45.168Z,1.39
2023-05-12T09:30:45.050Z,0.42
2023-05-12T09:31:36.725Z,1.56
2023-05-12T09:32:35.558Z,2.38
2023-05-12T09:33:35.633Z,1.24
2023-05-12T09:34:35.540Z,1.40
2023-05-12T09:35:37.069Z,1.67
2023-05-12T09:36:35.431Z,1.45
2023-05-12T09:37:35.436Z,1.52
2023-05-12T09:38:35.456Z,1.14
2023-05-12T09:39:35.526Z,1.14
2023-05-12T09:40:35.374Z,1.51
2023-05-12T09:41:35.468Z,1.17
2023-05-12T09:42:36.116Z,1.36
2023-05-12T09:43:35.478Z,1.18
2023-05-12T09:44:35.595Z,0.95
2023-05-12T09:45:35.587Z,1.02
2023-05-12T09:46:35.592Z,0.90
2023-05-12T09:47:35.613Z,0.87
2023-05-12T09:48:35.714Z,1.06
2023-05-12T09:49:36.147Z,1.23
2023-05-12T09:50:46.492Z,1.18
2023-05-12T09:51:36.680Z,1.41
2023-05-12T09:52:36.661Z,1.49
2023-05-12T09:53:41.606Z,1.39
2023-05-12T09:54:35.688Z,1.03
2023-05-12T09:55:35.681Z,1.43
2023-05-12T09:56:35.678Z,1.17
2023-05-12T09:57:35.691Z,1.26
2023-05-12T09:58:35.690Z,1.02
2023-05-12T09:59:35.630Z,0.98
2023-05-12T10:00:46.581Z,0.89
2023-05-12T10:01:36.875Z,0.82
2023-05-12T10:02:35.770Z,0.97
2023-05-12T10:03:35.614Z,1.04
2023-05-12T10:04:36.686Z,0.72
2023-05-12T10:05:35.640Z,1.18
2023-05-12T10:06:35.684Z,0.72
2023-05-12T10:07:35.604Z,0.86
2023-05-12T10:08:36.554Z,0.82
2023-05-12T10:09:38.491Z,0.84
2023-05-12T10:10:35.560Z,0.93
2023-05-12T10:11:35.575Z,1.12
2023-05-12T10:12:35.775Z,1.14
2023-05-12T10:14:55.759Z,1.41
2023-05-12T10:15:55.217Z,0.95
2023-05-12T10:16:56.217Z,0.87
2023-05-12T10:17:55.891Z,0.65
2023-05-12T10:18:55.394Z,1.01
2023-05-12T10:19:55.231Z,0.66
2023-05-12T10:20:56.325Z,1.33
2023-05-12T10:21:55.626Z,1.21
2023-05-12T10:22:55.192Z,1.21
2023-05-12T10:23:55.284Z,1.34
2023-05-12T10:24:55.193Z,1.26
2023-05-12T10:25:55.184Z,1.11
2023-05-12T10:26:56.261Z,0.91
2023-05-12T10:27:55.239Z,0.91
2023-05-12T10:28:55.252Z,1.20
2023-05-12T10:29:55.307Z,0.97
2023-05-12T10:30:55.221Z,1.08
2023-05-12T10:31:55.208Z,1.66
2023-05-12T10:35:34.282Z,1.29
2023-05-12T10:39:13.036Z,0.62
2023-05-12T10:41:32.909Z,0.85
2023-05-12T10:44:49.094Z,0.68
2023-05-12T10:45:48.913Z,0.87
2023-05-12T10:49:45.029Z,0.61
2023-05-12T10:59:55.220Z,0.00
2023-05-12T11:00:55.246Z,0.38
2023-05-12T11:01:54.963Z,0.22
2023-05-12T11:02:54.822Z,0.63
2023-05-12T11:15:05.633Z,0.00
2023-05-12T11:16:05.394Z,0.27
2023-05-12T11:18:25.709Z,0.22
2023-05-12T11:23:04.290Z,0.00
2023-05-12T11:24:00.663Z,0.28
2023-05-12T11:25:00.588Z,0.16
2023-05-12T11:26:00.684Z,0.34
2023-05-12T11:27:00.582Z,0.23
2023-05-12T11:28:00.611Z,0.39
2023-05-12T11:29:00.564Z,0.30
2023-05-12T11:31:52.336Z,0.52
2023-05-12T11:35:43.849Z,0.00
2023-05-12T11:40:19.138Z,0.00
2023-05-12T11:42:38.812Z,0.58
2023-05-12T11:43:37.939Z,0.49
2023-05-12T11:47:12.111Z,0.00
2023-05-12T11:48:12.023Z,0.44
2023-05-12T11:49:12.321Z,0.49
2023-05-12T11:50:11.567Z,0.34
2023-05-12T11:51:11.585Z,0.36
2023-05-12T12:01:18.261Z,0.31
2023-05-12T12:08:07.988Z,0.00
2023-05-12T12:09:08.938Z,0.21
2023-05-12T12:13:13.624Z,0.00
2023-05-12T12:14:12.917Z,0.54
2023-05-12T12:15:12.880Z,0.43
2023-05-12T12:17:32.578Z,0.61
2023-05-12T12:24:12.354Z,0.00
2023-05-12T12:25:12.128Z,0.27
2023-05-12T12:26:12.210Z,0.29
2023-05-12T12:27:12.141Z,0.33
2023-05-12T12:28:12.133Z,0.17
2023-05-12T12:30:32.102Z,0.17
2023-05-12T12:33:11.578Z,0.00
2023-05-12T12:34:11.184Z,0.19
2023-05-12T12:35:11.376Z,0.34
2023-05-12T12:38:21.516Z,1.19
2023-05-12T12:42:22.236Z,0.00
2023-05-12T12:43:22.082Z,0.31
2023-05-12T12:44:22.691Z,0.45
2023-05-12T12:45:22.411Z,0.32
2023-05-12T12:46:21.953Z,0.25
2023-05-12T12:47:21.987Z,0.25
2023-05-12T12:48:21.997Z,0.41
2023-05-12T12:49:21.971Z,0.48
2023-05-12T12:50:21.958Z,0.32
2023-05-12T12:57:20.018Z,0.00
2023-05-12T12:58:33.062Z,0.44
2023-05-12T12:59:19.501Z,0.47
2023-05-12T13:00:19.343Z,0.55
2023-05-12T13:01:19.349Z,0.40
2023-05-12T13:04:06.863Z,0.00
2023-05-12T13:09:40.065Z,0.00
2023-05-12T13:10:39.756Z,0.31
2023-05-12T13:11:39.780Z,0.38
2023-05-12T13:12:39.703Z,0.58
2023-05-12T13:13:39.770Z,0.62
2023-05-12T13:14:39.691Z,0.36
2023-05-12T13:15:39.677Z,0.65
2023-05-12T13:16:39.747Z,0.47
2023-05-12T13:17:39.705Z,0.47
2023-05-12T13:18:39.714Z,0.32
2023-05-12T13:19:39.729Z,0.55
2023-05-12T13:22:24.992Z,0.00
2023-05-12T13:23:24.497Z,0.46
2023-05-12T13:24:25.619Z,0.40
2023-05-12T13:25:24.507Z,0.39
2023-05-12T13:28:20.891Z,0.00
2023-05-12T13:31:23.013Z,0.00
2023-05-12T13:32:22.716Z,0.52
2023-05-12T13:33:32.499Z,0.47
2023-05-12T13:41:48.619Z,0.00
2023-05-12T13:42:48.080Z,0.46
2023-05-12T13:50:33.596Z,3.75
2023-05-12T13:51:31.649Z,1.08
2023-05-12T13:54:20.919Z,0.62
2023-05-12T13:55:21.280Z,0.36
2023-05-12T13:58:26.307Z,1.17
2023-05-12T13:59:25.395Z,2.88
2023-05-12T14:00:25.306Z,0.74
2023-05-12T14:01:25.406Z,0.39
2023-05-12T14:02:25.363Z,0.64
2023-05-12T14:06:50.495Z,0.00
2023-05-12T14:07:50.433Z,0.44
2023-05-12T14:08:50.304Z,0.43
2023-05-12T14:09:50.296Z,0.41
2023-05-12T14:10:50.658Z,0.39
2023-05-12T14:16:30.905Z,0.00
2023-05-12T14:17:20.365Z,0.51
2023-05-12T14:23:32.318Z,1.19
2023-05-12T14:24:24.597Z,0.41
2023-05-12T14:27:05.685Z,0.00
2023-05-12T14:28:04.648Z,0.47
2023-05-12T14:29:05.631Z,0.65
2023-05-12T14:30:04.671Z,0.45
2023-05-12T14:31:04.577Z,0.43
2023-05-12T14:32:04.674Z,0.27
2023-05-12T14:33:04.782Z,0.64
2023-05-12T14:36:05.971Z,0.56
2023-05-12T14:39:10.273Z,0.00
2023-05-12T14:40:09.921Z,0.44
2023-05-12T14:41:09.985Z,0.54
2023-05-12T14:42:10.497Z,0.32
2023-05-12T14:45:03.382Z,0.00
2023-05-12T14:49:21.750Z,0.00
2023-05-12T14:59:55.260Z,0.00
2023-05-12T15:00:54.940Z,0.79
2023-05-12T15:01:54.870Z,0.31
2023-05-12T15:02:55.008Z,0.57
2023-05-12T15:03:56.435Z,0.45
2023-05-12T15:06:16.390Z,0.32
2023-05-12T15:07:14.598Z,0.47
2023-05-12T15:08:14.523Z,0.76
2023-05-12T15:09:14.476Z,0.58
2023-05-12T15:10:15.454Z,0.73
2023-05-12T15:21:45.764Z,0.00
2023-05-12T15:22:47.626Z,0.36
2023-05-12T15:26:33.082Z,0.13
2023-05-12T15:27:27.762Z,0.52
2023-05-12T15:28:26.969Z,0.41
2023-05-12T15:29:26.874Z,0.52
2023-05-12T15:30:27.092Z,0.47
2023-05-12T15:31:32.433Z,0.55
2023-05-12T15:35:35.758Z,0.00
2023-05-12T15:36:35.517Z,0.54
2023-05-12T15:37:35.457Z,0.40
2023-05-12T15:38:35.506Z,0.56
2023-05-12T15:39:35.479Z,0.45
2023-05-12T15:40:35.502Z,0.52
2023-05-12T15:41:35.501Z,0.55
2023-05-12T15:44:48.617Z,0.00
2023-05-12T15:47:01.282Z,0.39
2023-05-12T15:48:01.058Z,0.44
2023-05-12T15:50:52.161Z,0.00
2023-05-12T15:51:51.942Z,0.66
2023-05-12T15:52:52.188Z,0.53
2023-05-12T15:53:51.986Z,0.68
2023-05-12T15:58:04.679Z,0.66
2023-05-12T15:59:04.459Z,0.57
2023-05-12T16:00:14.319Z,0.63
2023-05-12T16:01:05.512Z,0.63
2023-05-12T16:02:05.315Z,0.56
2023-05-12T16:03:04.561Z,0.46
2023-05-12T16:04:04.543Z,0.42
2023-05-12T16:05:04.470Z,0.48
2023-05-12T16:07:45.945Z,0.00
2023-05-12T16:08:45.738Z,0.44
2023-05-12T16:09:45.668Z,0.51
2023-05-12T16:13:10.694Z,0.00
2023-05-12T16:14:10.352Z,0.45
2023-05-12T16:15:10.412Z,0.67
2023-05-12T16:16:10.863Z,0.47
2023-05-12T16:18:32.286Z,0.45
2023-05-12T16:19:29.889Z,0.38
2023-05-12T16:20:30.451Z,0.70
2023-05-12T16:21:29.832Z,0.68
2023-05-12T16:24:18.358Z,0.00
2023-05-12T16:25:19.270Z,0.59
2023-05-12T16:27:37.935Z,0.51
2023-05-12T16:30:17.248Z,1.19
2023-05-12T16:31:22.967Z,0.49
2023-05-12T16:32:15.397Z,0.67
2023-05-12T16:33:15.280Z,0.74
2023-05-12T16:34:15.321Z,0.92
2023-05-12T16:35:15.239Z,0.73
2023-05-12T16:36:16.584Z,0.61
2023-05-12T16:39:35.294Z,0.00
2023-05-12T16:40:35.244Z,0.84
2023-05-12T16:41:35.219Z,0.66
2023-05-12T16:42:35.244Z,0.80
2023-05-12T16:43:35.122Z,0.78
2023-05-12T16:46:52.885Z,0.96
2023-05-12T16:47:52.560Z,0.69
2023-05-12T16:48:53.064Z,0.82
2023-05-12T16:49:52.413Z,0.62
2023-05-12T16:50:55.167Z,0.77
2023-05-12T16:51:52.403Z,0.81
2023-05-12T16:52:53.138Z,0.75
2023-05-12T16:53:52.520Z,0.90
2023-05-12T16:56:12.066Z,0.74
2023-05-12T16:57:11.857Z,0.88
2023-05-12T16:58:13.709Z,0.76
2023-05-12T17:00:31.862Z,0.68
2023-05-12T17:01:32.064Z,0.77
2023-05-12T17:02:31.641Z,0.71
2023-05-12T17:03:31.818Z,0.83
2023-05-12T17:04:32.540Z,0.78
2023-05-12T17:05:32.528Z,0.82
2023-05-12T17:06:31.632Z,0.66
2023-05-12T17:07:31.882Z,0.44
2023-05-12T17:08:31.625Z,0.42
2023-05-12T17:09:31.526Z,0.77
2023-05-12T17:10:31.518Z,0.78
2023-05-12T17:11:31.570Z,0.87
2023-05-12T17:12:31.520Z,0.81
2023-05-12T17:13:31.540Z,0.69
2023-05-12T17:14:31.491Z,0.75
2023-05-12T17:15:31.474Z,0.94
2023-05-12T17:16:31.666Z,0.65
2023-05-12T17:17:31.596Z,0.98
2023-05-12T17:18:31.514Z,1.05
2023-05-12T17:19:31.551Z,0.73
2023-05-12T17:23:16.874Z,0.13
2023-05-12T17:26:23.889Z,0.00
2023-05-12T17:27:16.768Z,0.75
2023-05-12T17:28:16.725Z,0.59
2023-05-12T17:29:16.590Z,0.53
2023-05-12T17:30:16.652Z,1.20
2023-05-12T17:31:16.667Z,0.72
2023-05-12T17:32:16.543Z,0.93
2023-05-12T17:33:16.633Z,1.07
2023-05-12T17:34:16.558Z,0.89
2023-05-12T17:35:16.566Z,0.86
2023-05-12T17:36:16.547Z,0.77
2023-05-12T17:37:17.398Z,0.70
2023-05-12T17:38:16.556Z,0.79
2023-05-12T17:39:16.584Z,0.97
2023-05-12T17:40:16.608Z,1.06
2023-05-12T17:41:16.561Z,1.03
2023-05-12T17:42:16.505Z,0.73
2023-05-12T17:43:16.526Z,1.15
2023-05-12T17:44:16.586Z,0.50
2023-05-12T17:45:16.496Z,0.78
2023-05-12T17:46:16.524Z,0.95
2023-05-12T17:47:16.577Z,1.01
2023-05-12T17:48:16.439Z,1.03
2023-05-12T17:49:17.866Z,1.01
2023-05-12T17:50:17.337Z,0.67
2023-05-12T17:51:16.489Z,1.00
2023-05-12T17:52:16.440Z,1.20
2023-05-12T17:53:16.451Z,1.09
2023-05-12T17:54:16.452Z,0.99
2023-05-12T17:55:16.451Z,0.89
2023-05-12T17:56:16.404Z,0.96
2023-05-12T17:57:16.567Z,1.26
2023-05-12T17:58:16.418Z,0.95
2023-05-12T17:59:16.500Z,1.19
2023-05-12T18:00:16.490Z,1.09
2023-05-12T18:01:16.551Z,0.81
2023-05-12T18:02:16.559Z,1.01
2023-05-12T18:03:16.671Z,1.24
2023-05-12T18:04:16.625Z,0.98
2023-05-12T18:05:16.682Z,1.36
2023-05-12T18:06:16.704Z,1.09
2023-05-12T18:07:16.739Z,1.01
2023-05-12T18:08:16.854Z,1.33
2023-05-12T18:09:16.793Z,1.02
2023-05-12T18:10:16.871Z,1.06
2023-05-12T18:11:16.963Z,1.12
2023-05-12T18:12:16.920Z,0.76
2023-05-12T18:13:17.042Z,1.36
2023-05-12T18:14:16.930Z,1.72
2023-05-12T18:15:17.072Z,1.04
2023-05-12T18:16:27.921Z,1.34
2023-05-12T18:17:18.039Z,1.27
2023-05-12T18:18:17.049Z,1.19
2023-05-12T18:19:17.074Z,1.37
2023-05-12T18:20:17.043Z,0.99
2023-05-12T18:21:17.500Z,1.21
2023-05-12T18:22:17.259Z,1.26
2023-05-12T18:23:16.986Z,1.23
2023-05-12T18:24:16.969Z,1.77
2023-05-12T18:25:16.982Z,1.38
2023-05-12T18:26:16.919Z,1.55
2023-05-12T18:27:16.977Z,1.37
2023-05-12T18:28:16.944Z,1.04
2023-05-12T18:29:16.931Z,1.12
2023-05-12T18:30:17.065Z,1.55
2023-05-12T18:31:17.009Z,1.26
2023-05-12T18:32:17.025Z,1.51
2023-05-12T18:33:17.095Z,1.14
2023-05-12T18:34:17.033Z,1.31
2023-05-12T18:35:17.143Z,1.44
2023-05-12T18:36:17.064Z,0.98
2023-05-12T18:37:17.145Z,1.23
2023-05-12T18:38:17.209Z,1.30
2023-05-12T18:39:18.322Z,1.45
2023-05-12T18:40:17.249Z,1.25
2023-05-12T18:41:17.227Z,1.26
2023-05-12T18:42:17.216Z,1.40
2023-05-12T18:43:17.299Z,1.39
2023-05-12T18:44:17.250Z,1.38
2023-05-12T18:45:17.253Z,1.33
2023-05-12T18:46:17.272Z,1.30
2023-05-12T18:47:17.270Z,1.66
2023-05-12T18:48:17.332Z,1.38
2023-05-12T18:49:17.390Z,1.49
2023-05-12T18:50:17.378Z,1.51
2023-05-12T18:51:17.393Z,1.03
2023-05-12T18:52:17.547Z,1.53
2023-05-12T18:53:17.472Z,1.33
2023-05-12T18:54:17.496Z,1.42
2023-05-12T18:55:17.509Z,0.94
2023-05-12T18:56:17.488Z,1.21
2023-05-12T18:57:17.533Z,1.18
2023-05-12T18:58:17.544Z,1.12
2023-05-12T18:59:17.600Z,1.18
2023-05-12T19:00:17.614Z,1.09
2023-05-12T19:01:17.732Z,1.27
2023-05-12T19:02:17.681Z,1.52
2023-05-12T19:03:17.699Z,1.42
2023-05-12T19:04:17.685Z,1.34
2023-05-12T19:05:17.802Z,0.98
2023-05-12T19:06:17.823Z,1.07
2023-05-12T19:07:18.170Z,1.46
2023-05-12T19:08:17.921Z,0.99
2023-05-12T19:09:17.923Z,1.10
2023-05-12T19:10:17.991Z,1.50
2023-05-12T19:11:18.092Z,1.51
2023-05-12T19:12:18.124Z,1.44
2023-05-12T19:13:18.121Z,1.78
2023-05-12T19:14:18.165Z,1.43
2023-05-12T19:15:18.518Z,1.20
2023-05-12T19:16:18.334Z,1.30
2023-05-12T19:17:18.276Z,1.37
2023-05-12T19:18:18.388Z,1.55
2023-05-12T19:19:18.425Z,1.60
2023-05-12T19:20:18.489Z,1.40
2023-05-12T19:21:18.566Z,1.75
2023-05-12T19:22:18.583Z,1.37
2023-05-12T19:23:18.580Z,1.38
2023-05-12T19:24:18.639Z,1.20
2023-05-12T19:25:18.785Z,1.12
2023-05-12T19:26:18.716Z,1.18
2023-05-12T19:27:18.806Z,1.17
2023-05-12T19:28:18.875Z,1.46
2023-05-12T19:29:18.960Z,1.25
2023-05-12T19:30:18.882Z,0.96
2023-05-12T19:31:18.996Z,1.39
2023-05-12T19:32:18.969Z,1.32
2023-05-12T19:33:19.078Z,1.42
2023-05-12T19:34:19.075Z,1.36
2023-05-12T19:35:19.363Z,1.32
2023-05-12T19:36:19.203Z,1.04
2023-05-12T19:37:19.194Z,1.08
2023-05-12T19:38:19.933Z,1.06
2023-05-12T19:39:19.250Z,1.15
2023-05-12T19:40:19.260Z,1.18
2023-05-12T19:41:19.381Z,1.29
2023-05-12T19:42:19.314Z,1.08
2023-05-12T19:43:19.341Z,1.55
2023-05-12T19:44:19.438Z,1.24
2023-05-12T19:45:19.543Z,1.25
2023-05-12T19:46:19.423Z,1.37
2023-05-12T19:47:19.467Z,1.44
2023-05-12T19:48:19.455Z,1.78
2023-05-12T19:49:19.520Z,1.56
2023-05-12T19:50:19.497Z,1.45
2023-05-12T19:51:19.698Z,1.56
2023-05-12T19:52:19.502Z,1.38